< Typhoon 195224 1952 Season Typhoon 195226 >
Typhoon 195225 (FAYE)
General InformationTrack Information on Google Maps || Disaster Info.ResourceGoogle EarthGE AnimationAtom FeedGeoJSON
Detalied Best Track (Time Zone = UTC)
Year Month Day Hour Lat. Long. Pressure (hPa) Wind (kt) Class Image Chart
1952 12 13 06 7.5 129.0 1000 0 2 -- Chart
1952 12 13 12 9.9 127.9 1000 0 2 -- Chart
1952 12 13 18 11.8 127.3 1004 0 2 -- Chart
1952 12 14 00 13.0 125.9 1006 0 2 -- Chart
1952 12 14 06 12.6 124.2 1004 0 2 -- Chart
1952 12 14 12 11.9 123.6 1008 0 2 -- Chart
1952 12 14 18 12.5 123.0 1008 0 2 -- Chart
1952 12 15 00 12.3 122.2 1008 0 2 -- Chart
1952 12 15 06 13.0 120.0 1004 0 2 -- Chart
1952 12 15 12 12.7 119.0 1004 0 2 -- Chart
1952 12 15 18 12.8 118.0 1004 0 2 -- Chart
1952 12 16 00 12.8 116.7 1004 0 2 -- Chart
1952 12 16 06 12.8 116.0 1004 0 2 -- Chart
1952 12 16 12 12.8 115.0 1004 0 2 -- Chart
1952 12 16 18 12.8 114.0 1000 0 9 -- Chart
1952 12 17 00 12.9 113.2 990 0 9 -- Chart
1952 12 17 06 12.7 112.8 990 0 9 -- Chart
1952 12 17 12 12.6 112.9 990 0 9 -- Chart
1952 12 17 18 12.6 113.1 990 0 9 -- Chart
1952 12 18 00 12.8 113.2 990 0 9 -- Chart
1952 12 18 06 12.9 112.8 995 0 9 -- Chart
1952 12 18 12 12.9 112.3 995 0 9 -- Chart
1952 12 18 18 12.8 112.0 995 0 9 -- Chart
1952 12 19 00 12.8 111.6 1000 0 9 -- Chart
1952 12 19 06 12.8 111.3 1002 0 9 -- Chart
1952 12 19 12 12.8 111.0 1002 0 9 -- Chart
1952 12 19 18 12.8 110.6 1005 0 9 -- Chart
1952 12 20 00 12.8 110.2 1010 0 2 -- Chart
Japan Meteorological Agency Best Track Data | Correction Date : 1989-06-01
< Typhoon 195224 1952 Season Typhoon 195226 >

Help